ROTAER D-AMDT 37/19 Ver Mudanças

Barreiras ( SNBR ) / BARREIRAS, BA 12 04 45S/045 00 34W
AD PUB Governo do Estado 19WNN UTC-3 VFR L21 , L26 748 (2454)

08 - L12 - ( 1600x30 ASPH 35/F/A/X/T L14 , L15 ) - L12 - 26

SBRE (CINDACTA 3)
RDONAV -
VOR/DME BRR 114.3 1204.80S/04500.43W
CMB- [1] PF TF
MET -

[2] [3]

RMK -

DADOS GEOGRÁFICOS E ADMINISTRATIVOS DE AERÓDROMO
  1. Contatos telefônicos: (71) 3241-1982, (77) 8116-0829, (71) 9670-6361,(77) 9993-2336 e (77) 9909-5421 - São Francisco
HORÁRIO DE FUNCIONAMENTO
  1. OPS VFR noturna PPR e COOR O/R com antecedência MNM de 1 hora através dos TEL: (77) 9125-9724, 3611-2361 ou 9931-6210
OBSTÁCULO DE AERÓDROMO
  1. OBS OBST (antena) DIST 5578M da THR 08, no AZM 203DEG, ELEV 2444FT
COMPL -
  • [1] (DLY 0700-1730)
  • [2] MET ERAA (ESTACAO DE RADIODIFUSAO AUTOMATICA DE AERODROMO) FREQ 132.350MHZ.
  • [3] PARA ACESSAR METAR/SPECI AUTO USAR CODIGO DE LOCALIDADE SNBR
TEMP (0)

Suplementos AIP (0)

NOTAM (1)

Z0957/19 N 05/08/2019 20:50
AREA PERIGOSA TEMPORARIAMENTE (FLT A VELA EM PLANADORES) BTN COORD 100942S/0464002W, 102710S/0450815W, 120232S/0441541W, 134946S/0442809W, 141430S/0462129W, 100942S/0464002W ACT


Nascer/Por do Sol

08:54

20:56


METAR

151200Z AUTO 05006KT 020V100 CAVOK 25/14 Q1020=

TAF

Não disponível


Cartas (0)


Rotas Preferenciais (0)